sensor_id;sensor_type;location;lat;lon;timestamp;P1;durP1;ratioP1;P2;durP2;ratioP2
13999;SDS011;7075;53.574;10.054;2022-10-26T00:03:49;104.45;;;98.90;;
13999;SDS011;7075;53.574;10.054;2022-10-26T00:06:15;112.97;;;106.97;;
13999;SDS011;7075;53.574;10.054;2022-10-26T00:08:43;113.50;;;107.53;;
13999;SDS011;7075;53.574;10.054;2022-10-26T00:11:09;111.60;;;105.70;;
13999;SDS011;7075;53.574;10.054;2022-10-26T00:13:36;117.93;;;111.80;;
13999;SDS011;7075;53.574;10.054;2022-10-26T00:16:15;115.93;;;109.93;;
13999;SDS011;7075;53.574;10.054;2022-10-26T00:18:44;124.30;;;117.72;;
13999;SDS011;7075;53.574;10.054;2022-10-26T00:21:10;124.85;;;118.55;;
13999;SDS011;7075;53.574;10.054;2022-10-26T00:23:36;125.28;;;118.85;;
13999;SDS011;7075;53.574;10.054;2022-10-26T00:26:02;126.53;;;120.03;;
13999;SDS011;7075;53.574;10.054;2022-10-26T00:28:31;129.17;;;122.47;;
13999;SDS011;7075;53.574;10.054;2022-10-26T00:31:00;129.30;;;122.40;;
13999;SDS011;7075;53.574;10.054;2022-10-26T00:33:27;127.15;;;120.38;;
13999;SDS011;7075;53.574;10.054;2022-10-26T00:35:54;126.70;;;120.07;;
13999;SDS011;7075;53.574;10.054;2022-10-26T00:38:20;125.82;;;119.32;;
13999;SDS011;7075;53.574;10.054;2022-10-26T00:40:46;120.70;;;114.50;;
13999;SDS011;7075;53.574;10.054;2022-10-26T00:43:32;130.15;;;123.22;;
13999;SDS011;7075;53.574;10.054;2022-10-26T00:45:57;123.97;;;117.57;;
13999;SDS011;7075;53.574;10.054;2022-10-26T00:48:26;124.72;;;118.15;;
13999;SDS011;7075;53.574;10.054;2022-10-26T00:50:58;124.70;;;118.13;;
13999;SDS011;7075;53.574;10.054;2022-10-26T00:53:26;116.70;;;110.70;;
13999;SDS011;7075;53.574;10.054;2022-10-26T00:55:53;115.65;;;109.45;;
13999;SDS011;7075;53.574;10.054;2022-10-26T00:58:20;119.03;;;112.78;;
13999;SDS011;7075;53.574;10.054;2022-10-26T01:00:49;124.22;;;117.70;;
13999;SDS011;7075;53.574;10.054;2022-10-26T01:03:15;133.90;;;126.90;;
13999;SDS011;7075;53.574;10.054;2022-10-26T01:09:03;132.97;;;125.93;;
13999;SDS011;7075;53.574;10.054;2022-10-26T01:11:30;140.80;;;133.43;;
13999;SDS011;7075;53.574;10.054;2022-10-26T01:13:55;142.45;;;135.00;;
13999;SDS011;7075;53.574;10.054;2022-10-26T01:22:25;143.57;;;136.00;;
13999;SDS011;7075;53.574;10.054;2022-10-26T01:25:03;156.55;;;148.25;;
13999;SDS011;7075;53.574;10.054;2022-10-26T01:27:51;155.02;;;146.70;;
13999;SDS011;7075;53.574;10.054;2022-10-26T01:35:41;165.55;;;156.75;;
13999;SDS011;7075;53.574;10.054;2022-10-26T01:38:43;175.73;;;166.70;;
13999;SDS011;7075;53.574;10.054;2022-10-26T01:43:51;168.15;;;159.15;;
13999;SDS011;7075;53.574;10.054;2022-10-26T01:46:27;172.50;;;163.68;;
13999;SDS011;7075;53.574;10.054;2022-10-26T01:49:00;169.07;;;160.00;;
13999;SDS011;7075;53.574;10.054;2022-10-26T01:51:30;161.80;;;153.38;;
13999;SDS011;7075;53.574;10.054;2022-10-26T01:53:57;162.77;;;154.27;;
13999;SDS011;7075;53.574;10.054;2022-10-26T01:56:24;175.50;;;166.55;;
13999;SDS011;7075;53.574;10.054;2022-10-26T01:58:59;167.07;;;158.50;;
13999;SDS011;7075;53.574;10.054;2022-10-26T02:17:42;200.77;;;190.13;;
13999;SDS011;7075;53.574;10.054;2022-10-26T02:20:37;195.30;;;185.07;;
13999;SDS011;7075;53.574;10.054;2022-10-26T02:23:06;190.95;;;180.95;;
13999;SDS011;7075;53.574;10.054;2022-10-26T02:25:34;191.93;;;181.95;;
13999;SDS011;7075;53.574;10.054;2022-10-26T02:28:09;198.65;;;188.32;;
13999;SDS011;7075;53.574;10.054;2022-10-26T02:30:38;194.90;;;184.70;;
13999;SDS011;7075;53.574;10.054;2022-10-26T02:33:06;201.00;;;190.70;;
13999;SDS011;7075;53.574;10.054;2022-10-26T02:35:35;190.15;;;180.38;;
13999;SDS011;7075;53.574;10.054;2022-10-26T02:38:04;189.87;;;179.90;;
13999;SDS011;7075;53.574;10.054;2022-10-26T02:40:34;194.55;;;184.68;;
13999;SDS011;7075;53.574;10.054;2022-10-26T02:43:03;189.60;;;179.68;;
13999;SDS011;7075;53.574;10.054;2022-10-26T02:45:33;193.57;;;183.37;;
13999;SDS011;7075;53.574;10.054;2022-10-26T02:48:08;196.40;;;186.27;;
13999;SDS011;7075;53.574;10.054;2022-10-26T02:50:39;195.00;;;184.95;;
13999;SDS011;7075;53.574;10.054;2022-10-26T02:53:34;195.10;;;184.93;;
13999;SDS011;7075;53.574;10.054;2022-10-26T02:56:13;200.52;;;189.93;;
13999;SDS011;7075;53.574;10.054;2022-10-26T02:58:44;203.15;;;192.75;;
13999;SDS011;7075;53.574;10.054;2022-10-26T03:01:13;194.75;;;184.95;;
13999;SDS011;7075;53.574;10.054;2022-10-26T03:03:40;206.10;;;195.40;;
13999;SDS011;7075;53.574;10.054;2022-10-26T03:06:05;197.00;;;186.20;;
13999;SDS011;7075;53.574;10.054;2022-10-26T03:08:31;190.18;;;180.20;;
13999;SDS011;7075;53.574;10.054;2022-10-26T03:10:57;183.43;;;173.80;;
13999;SDS011;7075;53.574;10.054;2022-10-26T03:13:22;193.53;;;183.47;;
13999;SDS011;7075;53.574;10.054;2022-10-26T03:15:48;184.13;;;174.77;;
13999;SDS011;7075;53.574;10.054;2022-10-26T03:18:13;183.48;;;174.02;;
13999;SDS011;7075;53.574;10.054;2022-10-26T03:20:42;177.40;;;168.10;;
13999;SDS011;7075;53.574;10.054;2022-10-26T03:23:09;156.82;;;148.77;;
13999;SDS011;7075;53.574;10.054;2022-10-26T03:25:34;158.17;;;149.83;;
13999;SDS011;7075;53.574;10.054;2022-10-26T03:28:01;171.30;;;162.30;;
13999;SDS011;7075;53.574;10.054;2022-10-26T03:30:28;171.95;;;163.00;;
13999;SDS011;7075;53.574;10.054;2022-10-26T03:32:54;173.25;;;164.27;;
13999;SDS011;7075;53.574;10.054;2022-10-26T03:35:20;182.02;;;172.63;;
13999;SDS011;7075;53.574;10.054;2022-10-26T03:37:46;170.68;;;161.88;;
13999;SDS011;7075;53.574;10.054;2022-10-26T03:40:12;190.30;;;180.30;;
13999;SDS011;7075;53.574;10.054;2022-10-26T03:42:38;195.43;;;185.23;;
13999;SDS011;7075;53.574;10.054;2022-10-26T03:45:04;194.15;;;184.10;;
13999;SDS011;7075;53.574;10.054;2022-10-26T03:47:31;196.55;;;186.25;;
13999;SDS011;7075;53.574;10.054;2022-10-26T03:49:57;200.37;;;190.03;;
13999;SDS011;7075;53.574;10.054;2022-10-26T03:52:23;199.18;;;188.75;;
13999;SDS011;7075;53.574;10.054;2022-10-26T03:54:49;209.00;;;197.77;;
13999;SDS011;7075;53.574;10.054;2022-10-26T03:57:14;209.82;;;198.75;;
13999;SDS011;7075;53.574;10.054;2022-10-26T03:59:40;197.67;;;187.00;;
13999;SDS011;7075;53.574;10.054;2022-10-26T04:02:06;195.77;;;185.37;;
13999;SDS011;7075;53.574;10.054;2022-10-26T04:04:31;189.73;;;179.73;;
13999;SDS011;7075;53.574;10.054;2022-10-26T04:07:00;184.45;;;174.75;;
13999;SDS011;7075;53.574;10.054;2022-10-26T04:09:26;178.67;;;169.10;;
13999;SDS011;7075;53.574;10.054;2022-10-26T04:11:51;174.23;;;164.93;;
13999;SDS011;7075;53.574;10.054;2022-10-26T04:14:17;152.25;;;143.77;;
13999;SDS011;7075;53.574;10.054;2022-10-26T04:16:42;145.60;;;137.63;;
13999;SDS011;7075;53.574;10.054;2022-10-26T04:19:08;138.27;;;131.07;;
13999;SDS011;7075;53.574;10.054;2022-10-26T04:21:34;145.93;;;138.23;;
13999;SDS011;7075;53.574;10.054;2022-10-26T04:24:00;149.25;;;141.20;;
13999;SDS011;7075;53.574;10.054;2022-10-26T04:26:26;152.02;;;143.82;;
13999;SDS011;7075;53.574;10.054;2022-10-26T04:28:52;166.50;;;157.73;;
13999;SDS011;7075;53.574;10.054;2022-10-26T04:31:17;167.73;;;158.67;;
13999;SDS011;7075;53.574;10.054;2022-10-26T04:33:43;169.57;;;160.65;;
13999;SDS011;7075;53.574;10.054;2022-10-26T04:36:09;166.43;;;157.63;;
13999;SDS011;7075;53.574;10.054;2022-10-26T04:38:35;169.32;;;160.27;;
13999;SDS011;7075;53.574;10.054;2022-10-26T04:41:00;162.35;;;153.55;;
13999;SDS011;7075;53.574;10.054;2022-10-26T04:43:26;177.60;;;168.00;;
13999;SDS011;7075;53.574;10.054;2022-10-26T04:45:55;178.60;;;168.93;;
13999;SDS011;7075;53.574;10.054;2022-10-26T04:48:21;162.55;;;153.85;;
13999;SDS011;7075;53.574;10.054;2022-10-26T04:50:48;174.45;;;164.80;;
13999;SDS011;7075;53.574;10.054;2022-10-26T04:53:13;174.10;;;164.93;;
13999;SDS011;7075;53.574;10.054;2022-10-26T04:55:39;157.77;;;149.15;;
13999;SDS011;7075;53.574;10.054;2022-10-26T04:58:05;170.77;;;161.53;;
13999;SDS011;7075;53.574;10.054;2022-10-26T05:00:31;161.73;;;153.13;;
13999;SDS011;7075;53.574;10.054;2022-10-26T05:03:01;153.10;;;144.77;;
13999;SDS011;7075;53.574;10.054;2022-10-26T05:05:29;166.10;;;157.25;;
13999;SDS011;7075;53.574;10.054;2022-10-26T05:07:55;157.50;;;149.13;;
13999;SDS011;7075;53.574;10.054;2022-10-26T05:10:21;162.02;;;153.45;;
13999;SDS011;7075;53.574;10.054;2022-10-26T05:12:54;164.60;;;155.50;;
13999;SDS011;7075;53.574;10.054;2022-10-26T05:15:21;162.30;;;153.77;;
13999;SDS011;7075;53.574;10.054;2022-10-26T05:17:53;161.53;;;153.00;;
13999;SDS011;7075;53.574;10.054;2022-10-26T05:20:23;155.40;;;147.40;;
13999;SDS011;7075;53.574;10.054;2022-10-26T05:22:54;150.85;;;142.77;;
13999;SDS011;7075;53.574;10.054;2022-10-26T05:25:20;173.63;;;164.07;;
13999;SDS011;7075;53.574;10.054;2022-10-26T05:27:46;141.15;;;133.68;;
13999;SDS011;7075;53.574;10.054;2022-10-26T05:30:12;132.03;;;124.87;;
13999;SDS011;7075;53.574;10.054;2022-10-26T05:32:37;131.77;;;124.60;;
13999;SDS011;7075;53.574;10.054;2022-10-26T05:35:03;132.67;;;125.47;;
13999;SDS011;7075;53.574;10.054;2022-10-26T05:37:29;132.68;;;125.60;;
13999;SDS011;7075;53.574;10.054;2022-10-26T05:39:55;141.57;;;133.80;;
13999;SDS011;7075;53.574;10.054;2022-10-26T05:42:20;141.37;;;133.67;;
13999;SDS011;7075;53.574;10.054;2022-10-26T05:44:46;126.15;;;119.45;;
13999;SDS011;7075;53.574;10.054;2022-10-26T05:47:15;124.27;;;117.33;;
13999;SDS011;7075;53.574;10.054;2022-10-26T05:49:40;65.60;;;61.37;;
13999;SDS011;7075;53.574;10.054;2022-10-26T05:52:06;68.30;;;64.18;;
13999;SDS011;7075;53.574;10.054;2022-10-26T05:54:31;65.35;;;61.15;;
13999;SDS011;7075;53.574;10.054;2022-10-26T05:56:57;69.23;;;64.97;;
13999;SDS011;7075;53.574;10.054;2022-10-26T05:59:23;69.25;;;64.95;;
13999;SDS011;7075;53.574;10.054;2022-10-26T06:04:25;76.28;;;71.88;;
13999;SDS011;7075;53.574;10.054;2022-10-26T06:07:02;68.57;;;64.68;;
13999;SDS011;7075;53.574;10.054;2022-10-26T06:09:34;78.20;;;73.75;;
13999;SDS011;7075;53.574;10.054;2022-10-26T06:12:00;74.88;;;70.43;;
13999;SDS011;7075;53.574;10.054;2022-10-26T06:14:26;77.25;;;72.63;;
13999;SDS011;7075;53.574;10.054;2022-10-26T06:17:01;75.78;;;71.38;;
13999;SDS011;7075;53.574;10.054;2022-10-26T06:22:38;71.97;;;67.78;;
13999;SDS011;7075;53.574;10.054;2022-10-26T06:25:27;74.15;;;70.00;;
13999;SDS011;7075;53.574;10.054;2022-10-26T06:30:54;66.25;;;62.47;;
13999;SDS011;7075;53.574;10.054;2022-10-26T06:33:21;65.88;;;62.28;;
13999;SDS011;7075;53.574;10.054;2022-10-26T06:38:27;73.65;;;69.18;;
13999;SDS011;7075;53.574;10.054;2022-10-26T06:40:55;69.88;;;65.78;;
13999;SDS011;7075;53.574;10.054;2022-10-26T06:43:31;71.65;;;67.35;;
13999;SDS011;7075;53.574;10.054;2022-10-26T06:46:01;73.13;;;68.85;;
13999;SDS011;7075;53.574;10.054;2022-10-26T06:51:35;63.97;;;60.17;;
13999;SDS011;7075;53.574;10.054;2022-10-26T06:54:30;75.97;;;71.55;;
13999;SDS011;7075;53.574;10.054;2022-10-26T06:57:19;73.50;;;69.30;;
13999;SDS011;7075;53.574;10.054;2022-10-26T07:02:20;72.80;;;68.57;;
13999;SDS011;7075;53.574;10.054;2022-10-26T07:04:46;67.07;;;63.17;;
13999;SDS011;7075;53.574;10.054;2022-10-26T07:07:22;69.93;;;65.70;;
13999;SDS011;7075;53.574;10.054;2022-10-26T07:09:49;71.05;;;67.00;;
13999;SDS011;7075;53.574;10.054;2022-10-26T07:12:15;81.95;;;77.28;;
13999;SDS011;7075;53.574;10.054;2022-10-26T07:14:41;78.75;;;74.35;;
13999;SDS011;7075;53.574;10.054;2022-10-26T07:17:07;82.30;;;77.80;;
13999;SDS011;7075;53.574;10.054;2022-10-26T07:19:33;82.13;;;77.50;;
13999;SDS011;7075;53.574;10.054;2022-10-26T07:21:59;79.57;;;75.17;;
13999;SDS011;7075;53.574;10.054;2022-10-26T07:24:25;73.87;;;69.57;;
13999;SDS011;7075;53.574;10.054;2022-10-26T07:26:55;76.28;;;71.97;;
13999;SDS011;7075;53.574;10.054;2022-10-26T07:29:22;80.85;;;76.45;;
13999;SDS011;7075;53.574;10.054;2022-10-26T07:31:49;79.82;;;75.13;;
13999;SDS011;7075;53.574;10.054;2022-10-26T07:34:15;79.63;;;75.07;;
13999;SDS011;7075;53.574;10.054;2022-10-26T07:36:41;78.77;;;74.30;;
13999;SDS011;7075;53.574;10.054;2022-10-26T07:39:07;85.68;;;80.65;;
13999;SDS011;7075;53.574;10.054;2022-10-26T07:41:33;84.85;;;79.63;;
13999;SDS011;7075;53.574;10.054;2022-10-26T07:43:58;92.65;;;86.38;;
13999;SDS011;7075;53.574;10.054;2022-10-26T07:46:24;134.82;;;122.40;;
13999;SDS011;7075;53.574;10.054;2022-10-26T07:48:50;125.05;;;113.28;;
13999;SDS011;7075;53.574;10.054;2022-10-26T07:51:16;103.60;;;95.23;;
13999;SDS011;7075;53.574;10.054;2022-10-26T07:53:42;82.57;;;77.17;;
13999;SDS011;7075;53.574;10.054;2022-10-26T07:56:08;76.97;;;72.40;;
13999;SDS011;7075;53.574;10.054;2022-10-26T07:58:34;85.20;;;80.45;;
13999;SDS011;7075;53.574;10.054;2022-10-26T08:01:07;94.53;;;89.37;;
13999;SDS011;7075;53.574;10.054;2022-10-26T08:03:37;91.60;;;86.07;;
13999;SDS011;7075;53.574;10.054;2022-10-26T08:06:03;94.07;;;88.90;;
13999;SDS011;7075;53.574;10.054;2022-10-26T08:08:29;97.95;;;92.45;;
13999;SDS011;7075;53.574;10.054;2022-10-26T08:10:55;98.30;;;93.00;;
13999;SDS011;7075;53.574;10.054;2022-10-26T08:13:21;96.45;;;91.32;;
13999;SDS011;7075;53.574;10.054;2022-10-26T08:15:47;100.47;;;94.87;;
13999;SDS011;7075;53.574;10.054;2022-10-26T08:18:13;99.43;;;93.93;;
13999;SDS011;7075;53.574;10.054;2022-10-26T08:20:40;93.47;;;88.38;;
13999;SDS011;7075;53.574;10.054;2022-10-26T08:23:05;92.70;;;87.65;;
13999;SDS011;7075;53.574;10.054;2022-10-26T08:25:32;126.30;;;116.90;;
13999;SDS011;7075;53.574;10.054;2022-10-26T08:28:01;103.10;;;96.88;;
13999;SDS011;7075;53.574;10.054;2022-10-26T08:30:31;99.28;;;93.43;;
13999;SDS011;7075;53.574;10.054;2022-10-26T08:33:00;93.07;;;88.00;;
13999;SDS011;7075;53.574;10.054;2022-10-26T08:35:28;99.03;;;93.63;;
13999;SDS011;7075;53.574;10.054;2022-10-26T08:37:54;98.95;;;93.55;;
13999;SDS011;7075;53.574;10.054;2022-10-26T08:40:25;98.27;;;92.97;;
13999;SDS011;7075;53.574;10.054;2022-10-26T08:42:59;93.63;;;88.67;;
13999;SDS011;7075;53.574;10.054;2022-10-26T08:45:31;105.25;;;99.63;;
13999;SDS011;7075;53.574;10.054;2022-10-26T08:48:04;102.00;;;96.30;;
13999;SDS011;7075;53.574;10.054;2022-10-26T08:50:38;108.30;;;102.55;;
13999;SDS011;7075;53.574;10.054;2022-10-26T08:53:19;111.73;;;106.00;;
13999;SDS011;7075;53.574;10.054;2022-10-26T08:55:57;111.27;;;105.27;;
13999;SDS011;7075;53.574;10.054;2022-10-26T08:58:29;111.07;;;104.95;;
13999;SDS011;7075;53.574;10.054;2022-10-26T09:01:00;105.15;;;99.70;;
13999;SDS011;7075;53.574;10.054;2022-10-26T09:03:27;109.07;;;103.28;;
13999;SDS011;7075;53.574;10.054;2022-10-26T09:05:56;111.17;;;105.10;;
13999;SDS011;7075;53.574;10.054;2022-10-26T09:15:19;122.97;;;116.28;;
13999;SDS011;7075;53.574;10.054;2022-10-26T09:18:05;139.85;;;132.70;;
13999;SDS011;7075;53.574;10.054;2022-10-26T09:26:05;110.95;;;105.05;;
13999;SDS011;7075;53.574;10.054;2022-10-26T09:28:47;111.95;;;106.05;;
13999;SDS011;7075;53.574;10.054;2022-10-26T09:31:14;97.20;;;91.82;;
13999;SDS011;7075;53.574;10.054;2022-10-26T09:33:41;98.25;;;92.95;;
13999;SDS011;7075;53.574;10.054;2022-10-26T09:36:11;101.53;;;95.77;;
13999;SDS011;7075;53.574;10.054;2022-10-26T09:41:39;94.80;;;89.70;;
13999;SDS011;7075;53.574;10.054;2022-10-26T09:44:25;97.03;;;91.82;;
13999;SDS011;7075;53.574;10.054;2022-10-26T09:49:52;104.72;;;99.03;;
13999;SDS011;7075;53.574;10.054;2022-10-26T09:52:22;85.72;;;80.97;;
13999;SDS011;7075;53.574;10.054;2022-10-26T09:54:51;82.20;;;77.70;;
13999;SDS011;7075;53.574;10.054;2022-10-26T09:57:17;95.45;;;90.22;;
13999;SDS011;7075;53.574;10.054;2022-10-26T09:59:44;114.00;;;107.88;;
13999;SDS011;7075;53.574;10.054;2022-10-26T10:02:38;139.85;;;132.52;;
13999;SDS011;7075;53.574;10.054;2022-10-26T10:05:30;150.57;;;142.70;;
13999;SDS011;7075;53.574;10.054;2022-10-26T10:11:06;147.98;;;140.45;;
13999;SDS011;7075;53.574;10.054;2022-10-26T10:13:37;161.33;;;153.17;;
13999;SDS011;7075;53.574;10.054;2022-10-26T10:16:11;167.97;;;159.00;;
13999;SDS011;7075;53.574;10.054;2022-10-26T10:18:57;175.32;;;166.18;;
13999;SDS011;7075;53.574;10.054;2022-10-26T10:21:38;173.68;;;164.43;;
13999;SDS011;7075;53.574;10.054;2022-10-26T10:24:22;164.93;;;156.02;;
13999;SDS011;7075;53.574;10.054;2022-10-26T10:29:40;163.10;;;154.52;;
13999;SDS011;7075;53.574;10.054;2022-10-26T10:32:10;147.97;;;139.97;;
13999;SDS011;7075;53.574;10.054;2022-10-26T10:34:52;144.07;;;136.47;;
13999;SDS011;7075;53.574;10.054;2022-10-26T10:37:23;127.00;;;120.00;;
13999;SDS011;7075;53.574;10.054;2022-10-26T10:40:00;129.32;;;122.53;;
13999;SDS011;7075;53.574;10.054;2022-10-26T10:42:30;132.40;;;125.07;;
13999;SDS011;7075;53.574;10.054;2022-10-26T10:45:01;133.18;;;125.82;;
13999;SDS011;7075;53.574;10.054;2022-10-26T10:47:34;115.33;;;109.17;;
13999;SDS011;7075;53.574;10.054;2022-10-26T10:52:38;119.38;;;112.95;;
13999;SDS011;7075;53.574;10.054;2022-10-26T10:57:42;125.13;;;118.30;;
13999;SDS011;7075;53.574;10.054;2022-10-26T11:00:20;115.95;;;109.38;;
13999;SDS011;7075;53.574;10.054;2022-10-26T11:02:59;106.57;;;100.82;;
13999;SDS011;7075;53.574;10.054;2022-10-26T11:08:27;106.68;;;101.07;;
13999;SDS011;7075;53.574;10.054;2022-10-26T11:11:18;104.03;;;98.45;;
13999;SDS011;7075;53.574;10.054;2022-10-26T11:14:21;84.63;;;80.03;;
13999;SDS011;7075;53.574;10.054;2022-10-26T11:17:03;93.38;;;88.53;;
13999;SDS011;7075;53.574;10.054;2022-10-26T11:19:42;86.77;;;82.07;;
13999;SDS011;7075;53.574;10.054;2022-10-26T11:22:29;72.00;;;67.80;;
13999;SDS011;7075;53.574;10.054;2022-10-26T11:25:04;82.10;;;77.43;;
13999;SDS011;7075;53.574;10.054;2022-10-26T11:27:49;82.60;;;78.10;;
13999;SDS011;7075;53.574;10.054;2022-10-26T11:30:21;91.70;;;86.82;;
13999;SDS011;7075;53.574;10.054;2022-10-26T11:36:02;90.75;;;85.68;;
13999;SDS011;7075;53.574;10.054;2022-10-26T11:38:41;87.70;;;82.90;;
13999;SDS011;7075;53.574;10.054;2022-10-26T11:41:28;80.97;;;76.30;;
13999;SDS011;7075;53.574;10.054;2022-10-26T11:44:11;93.65;;;88.57;;
13999;SDS011;7075;53.574;10.054;2022-10-26T11:46:48;75.75;;;71.82;;
13999;SDS011;7075;53.574;10.054;2022-10-26T11:52:07;59.95;;;56.08;;
13999;SDS011;7075;53.574;10.054;2022-10-26T11:57:13;61.50;;;58.03;;
13999;SDS011;7075;53.574;10.054;2022-10-26T11:59:57;64.97;;;61.38;;
13999;SDS011;7075;53.574;10.054;2022-10-26T12:02:42;58.95;;;55.78;;
13999;SDS011;7075;53.574;10.054;2022-10-26T12:07:43;69.47;;;65.75;;
13999;SDS011;7075;53.574;10.054;2022-10-26T12:10:24;72.57;;;68.57;;
13999;SDS011;7075;53.574;10.054;2022-10-26T12:12:57;84.30;;;79.85;;
13999;SDS011;7075;53.574;10.054;2022-10-26T12:15:33;91.80;;;86.93;;
13999;SDS011;7075;53.574;10.054;2022-10-26T12:23:10;85.90;;;81.30;;
13999;SDS011;7075;53.574;10.054;2022-10-26T12:25:37;95.15;;;89.95;;
13999;SDS011;7075;53.574;10.054;2022-10-26T12:28:03;101.60;;;95.95;;
13999;SDS011;7075;53.574;10.054;2022-10-26T12:33:00;99.80;;;94.32;;
13999;SDS011;7075;53.574;10.054;2022-10-26T12:35:31;140.10;;;131.93;;
13999;SDS011;7075;53.574;10.054;2022-10-26T12:38:01;119.05;;;112.07;;
13999;SDS011;7075;53.574;10.054;2022-10-26T12:40:47;118.38;;;111.50;;
13999;SDS011;7075;53.574;10.054;2022-10-26T12:43:38;127.63;;;120.23;;
13999;SDS011;7075;53.574;10.054;2022-10-26T12:56:38;130.05;;;123.15;;
13999;SDS011;7075;53.574;10.054;2022-10-26T13:07:43;129.70;;;122.43;;
13999;SDS011;7075;53.574;10.054;2022-10-26T13:12:57;134.10;;;126.65;;
13999;SDS011;7075;53.574;10.054;2022-10-26T13:15:24;119.28;;;112.95;;
13999;SDS011;7075;53.574;10.054;2022-10-26T13:18:13;113.38;;;107.50;;
13999;SDS011;7075;53.574;10.054;2022-10-26T13:20:52;107.70;;;102.00;;
13999;SDS011;7075;53.574;10.054;2022-10-26T13:23:25;109.88;;;104.00;;
13999;SDS011;7075;53.574;10.054;2022-10-26T13:26:03;111.95;;;105.95;;
13999;SDS011;7075;53.574;10.054;2022-10-26T13:33:49;114.73;;;108.13;;
13999;SDS011;7075;53.574;10.054;2022-10-26T13:39:13;122.20;;;115.45;;
13999;SDS011;7075;53.574;10.054;2022-10-26T13:41:46;122.15;;;115.57;;
13999;SDS011;7075;53.574;10.054;2022-10-26T13:44:21;126.53;;;119.60;;
13999;SDS011;7075;53.574;10.054;2022-10-26T13:46:55;130.05;;;123.03;;
13999;SDS011;7075;53.574;10.054;2022-10-26T13:49:44;118.23;;;111.80;;
13999;SDS011;7075;53.574;10.054;2022-10-26T13:52:19;128.87;;;121.90;;
13999;SDS011;7075;53.574;10.054;2022-10-26T13:54:54;133.13;;;125.47;;
13999;SDS011;7075;53.574;10.054;2022-10-26T13:57:36;129.85;;;122.60;;
13999;SDS011;7075;53.574;10.054;2022-10-26T14:02:41;142.73;;;134.82;;
13999;SDS011;7075;53.574;10.054;2022-10-26T14:05:11;145.45;;;137.02;;
13999;SDS011;7075;53.574;10.054;2022-10-26T14:07:41;144.50;;;136.00;;
13999;SDS011;7075;53.574;10.054;2022-10-26T14:10:45;147.55;;;139.35;;
13999;SDS011;7075;53.574;10.054;2022-10-26T14:13:15;150.25;;;141.38;;
13999;SDS011;7075;53.574;10.054;2022-10-26T14:15:44;151.70;;;142.82;;
13999;SDS011;7075;53.574;10.054;2022-10-26T14:18:12;130.30;;;122.65;;
13999;SDS011;7075;53.574;10.054;2022-10-26T14:20:46;118.90;;;112.28;;
13999;SDS011;7075;53.574;10.054;2022-10-26T14:23:24;113.43;;;107.10;;
13999;SDS011;7075;53.574;10.054;2022-10-26T14:25:52;101.05;;;95.38;;
13999;SDS011;7075;53.574;10.054;2022-10-26T14:28:20;101.40;;;95.82;;
13999;SDS011;7075;53.574;10.054;2022-10-26T14:30:47;104.55;;;98.78;;
13999;SDS011;7075;53.574;10.054;2022-10-26T14:33:16;118.47;;;111.57;;
13999;SDS011;7075;53.574;10.054;2022-10-26T14:35:43;131.00;;;123.72;;
13999;SDS011;7075;53.574;10.054;2022-10-26T14:38:19;129.88;;;122.57;;
13999;SDS011;7075;53.574;10.054;2022-10-26T14:40:50;125.78;;;118.85;;
13999;SDS011;7075;53.574;10.054;2022-10-26T14:43:17;145.90;;;137.27;;
13999;SDS011;7075;53.574;10.054;2022-10-26T14:45:48;141.80;;;133.48;;
13999;SDS011;7075;53.574;10.054;2022-10-26T14:48:20;132.18;;;124.72;;
13999;SDS011;7075;53.574;10.054;2022-10-26T14:51:15;127.18;;;120.20;;
13999;SDS011;7075;53.574;10.054;2022-10-26T14:53:46;120.70;;;114.10;;
13999;SDS011;7075;53.574;10.054;2022-10-26T14:58:48;111.18;;;104.95;;
13999;SDS011;7075;53.574;10.054;2022-10-26T15:03:55;98.82;;;93.50;;
13999;SDS011;7075;53.574;10.054;2022-10-26T15:08:55;112.80;;;106.22;;
13999;SDS011;7075;53.574;10.054;2022-10-26T15:11:23;107.57;;;101.63;;
13999;SDS011;7075;53.574;10.054;2022-10-26T15:13:50;111.57;;;105.40;;
13999;SDS011;7075;53.574;10.054;2022-10-26T15:16:18;108.20;;;102.22;;
13999;SDS011;7075;53.574;10.054;2022-10-26T15:19:08;107.07;;;101.20;;
13999;SDS011;7075;53.574;10.054;2022-10-26T15:21:36;111.00;;;104.93;;
13999;SDS011;7075;53.574;10.054;2022-10-26T15:24:11;115.85;;;109.57;;
13999;SDS011;7075;53.574;10.054;2022-10-26T15:26:44;125.80;;;118.82;;
13999;SDS011;7075;53.574;10.054;2022-10-26T15:32:18;118.07;;;111.45;;
13999;SDS011;7075;53.574;10.054;2022-10-26T15:35:04;126.20;;;119.10;;
13999;SDS011;7075;53.574;10.054;2022-10-26T15:37:39;139.57;;;132.00;;
13999;SDS011;7075;53.574;10.054;2022-10-26T15:40:05;125.88;;;118.88;;
13999;SDS011;7075;53.574;10.054;2022-10-26T15:42:31;128.53;;;121.43;;
13999;SDS011;7075;53.574;10.054;2022-10-26T15:45:21;130.55;;;123.65;;
13999;SDS011;7075;53.574;10.054;2022-10-26T15:47:49;131.93;;;124.80;;
13999;SDS011;7075;53.574;10.054;2022-10-26T15:50:17;139.75;;;132.25;;
13999;SDS011;7075;53.574;10.054;2022-10-26T15:52:58;131.03;;;123.90;;
13999;SDS011;7075;53.574;10.054;2022-10-26T15:55:26;142.90;;;135.10;;
13999;SDS011;7075;53.574;10.054;2022-10-26T15:57:52;143.65;;;136.00;;
13999;SDS011;7075;53.574;10.054;2022-10-26T16:00:18;143.60;;;135.93;;
13999;SDS011;7075;53.574;10.054;2022-10-26T16:02:44;128.25;;;121.38;;
13999;SDS011;7075;53.574;10.054;2022-10-26T16:05:11;132.50;;;125.60;;
13999;SDS011;7075;53.574;10.054;2022-10-26T16:07:38;122.38;;;115.57;;
13999;SDS011;7075;53.574;10.054;2022-10-26T16:10:07;115.40;;;109.18;;
13999;SDS011;7075;53.574;10.054;2022-10-26T16:12:38;111.05;;;105.22;;
13999;SDS011;7075;53.574;10.054;2022-10-26T16:15:03;120.85;;;114.55;;
13999;SDS011;7075;53.574;10.054;2022-10-26T16:17:29;109.77;;;103.83;;
13999;SDS011;7075;53.574;10.054;2022-10-26T16:19:57;119.55;;;113.38;;
13999;SDS011;7075;53.574;10.054;2022-10-26T16:22:24;125.88;;;119.13;;
13999;SDS011;7075;53.574;10.054;2022-10-26T16:24:49;132.17;;;125.10;;
13999;SDS011;7075;53.574;10.054;2022-10-26T16:27:15;134.70;;;127.53;;
13999;SDS011;7075;53.574;10.054;2022-10-26T16:29:41;128.90;;;121.97;;
13999;SDS011;7075;53.574;10.054;2022-10-26T16:32:07;151.73;;;143.13;;
13999;SDS011;7075;53.574;10.054;2022-10-26T16:34:32;136.47;;;128.87;;
13999;SDS011;7075;53.574;10.054;2022-10-26T16:36:58;141.80;;;134.18;;
13999;SDS011;7075;53.574;10.054;2022-10-26T16:39:23;144.77;;;136.90;;
13999;SDS011;7075;53.574;10.054;2022-10-26T16:41:49;162.48;;;153.73;;
13999;SDS011;7075;53.574;10.054;2022-10-26T16:44:15;161.73;;;152.90;;
13999;SDS011;7075;53.574;10.054;2022-10-26T16:46:40;166.90;;;157.90;;
13999;SDS011;7075;53.574;10.054;2022-10-26T16:49:06;180.00;;;170.30;;
13999;SDS011;7075;53.574;10.054;2022-10-26T16:51:35;175.02;;;165.48;;